Time;durP1;ratioP1;P1;durP2;ratioP2;P2;SDS_P1;SDS_P2;PMS_P1;PMS_P2;Temp;Humidity;BMP_temperature;BMP_pressure;BME280_temperature;BME280_humidity;BME280_pressure;Samples;Min_cycle;Max_cycle;Signal;HPM_P1;HPM_P2
2022/01/24 00:01:24;;;;;;;26.57;24.13;;;5.10;99.90;;;;;;5064550;28;20466;-71
2022/01/24 00:03:56;;;;;;;29.07;22.83;;;5.10;99.90;;;;;;5062927;28;20486;-71
2022/01/24 00:06:23;;;;;;;26.40;23.40;;;5.10;99.90;;;;;;5062548;28;20492;-71
2022/01/24 00:08:50;;;;;;;24.70;22.50;;;5.10;99.90;;;;;;5060193;28;20535;-72
2022/01/24 00:11:21;;;;;;;25.27;22.80;;;5.10;99.90;;;;;;5060784;28;20470;-70
2022/01/24 00:17:02;;;;;;;25.23;22.93;;;5.00;99.90;;;;;;5067975;28;20853;-70
2022/01/24 00:27:44;;;;;;;24.43;22.37;;;4.60;99.90;;;;;;5061600;28;21106;-69
2022/01/24 00:30:12;;;;;;;25.10;23.00;;;4.50;99.90;;;;;;5061991;28;20463;-71
2022/01/24 00:32:41;;;;;;;25.53;23.30;;;4.40;99.90;;;;;;5063751;28;20465;-69
2022/01/24 00:35:08;;;;;;;24.77;22.53;;;4.40;99.90;;;;;;5064334;28;20462;-69
2022/01/24 00:37:35;;;;;;;24.87;22.80;;;4.30;99.90;;;;;;5056008;28;20471;-70
2022/01/24 00:40:03;;;;;;;23.50;21.40;;;4.20;99.90;;;;;;5069019;28;20491;-69
2022/01/24 00:42:42;;;;;;;24.70;22.40;;;4.20;99.90;;;;;;5052588;28;20458;-71
2022/01/24 00:45:13;;;;;;;25.03;22.83;;;4.20;99.90;;;;;;5061530;28;20475;-69
2022/01/24 00:48:03;;;;;;;24.30;22.20;;;4.10;99.90;;;;;;5062208;28;20462;-71
2022/01/24 00:53:30;;;;;;;25.50;23.03;;;4.00;99.90;;;;;;5062106;28;21031;-70
2022/01/24 00:55:58;;;;;;;24.63;22.50;;;3.90;99.90;;;;;;5063771;28;20969;-70
2022/01/24 00:58:25;;;;;;;25.70;23.17;;;3.80;99.90;;;;;;5058643;28;20452;-70
2022/01/24 01:00:52;;;;;;;25.53;23.30;;;3.70;99.90;;;;;;5068431;28;20855;-69
2022/01/24 01:03:20;;;;;;;24.70;22.40;;;3.70;99.90;;;;;;5061394;28;21030;-70
2022/01/24 01:19:31;;;;;;;30.87;23.53;;;3.00;99.90;;;;;;5061580;28;20467;-71
2022/01/24 01:21:58;;;;;;;26.30;24.00;;;2.90;99.90;;;;;;5062657;28;20463;-70
2022/01/24 01:24:28;;;;;;;27.23;24.30;;;2.80;99.90;;;;;;5063181;28;20459;-69
2022/01/24 01:27:00;;;;;;;25.40;23.40;;;2.80;99.90;;;;;;5057539;28;20459;-71
2022/01/24 01:29:32;;;;;;;26.13;23.97;;;2.70;99.90;;;;;;5062618;28;20808;-70
2022/01/24 01:32:10;;;;;;;25.70;23.43;;;2.60;99.90;;;;;;5063354;28;20467;-69
2022/01/24 01:35:00;;;;;;;25.60;23.23;;;2.50;99.90;;;;;;5063273;28;21016;-70
2022/01/24 01:54:16;;;;;;;25.80;23.53;;;1.90;99.90;;;;;;5054720;28;20974;-70
2022/01/24 01:56:44;;;;;;;26.30;24.10;;;1.80;99.90;;;;;;5055877;28;21004;-68
2022/01/24 01:59:11;;;;;;;25.83;23.60;;;1.70;99.90;;;;;;5061144;28;20452;-70
2022/01/24 02:01:38;;;;;;;27.20;24.70;;;1.70;99.90;;;;;;5061890;28;20498;-71
2022/01/24 02:04:05;;;;;;;26.17;24.03;;;1.60;99.90;;;;;;5060734;28;20479;-70
2022/01/24 02:06:34;;;;;;;26.80;24.30;;;1.50;99.90;;;;;;5062846;28;20830;-69
2022/01/24 02:09:03;;;;;;;26.30;24.17;;;1.50;99.90;;;;;;5058254;28;20463;-70
2022/01/24 02:11:30;;;;;;;27.50;25.00;;;1.50;99.90;;;;;;5059320;28;20586;-70
2022/01/24 02:14:00;;;;;;;28.00;25.30;;;1.40;99.90;;;;;;5052107;28;20487;-71
2022/01/24 02:16:36;;;;;;;27.97;25.37;;;1.40;99.90;;;;;;5065716;28;20459;-70
2022/01/24 02:19:14;;;;;;;26.23;24.07;;;1.30;99.90;;;;;;5061531;28;20496;-71
2022/01/24 02:21:47;;;;;;;27.70;25.10;;;1.20;99.90;;;;;;5062836;28;20500;-71
2022/01/24 02:24:18;;;;;;;27.60;25.00;;;1.10;99.90;;;;;;5058205;28;21048;-71
2022/01/24 02:26:48;;;;;;;27.70;25.10;;;1.00;99.90;;;;;;5061334;28;20567;-70
2022/01/24 02:29:26;;;;;;;28.50;26.10;;;1.00;99.90;;;;;;5054835;28;20824;-70
2022/01/24 02:31:55;;;;;;;28.17;25.67;;;1.00;99.90;;;;;;5059501;28;20473;-68
2022/01/24 02:34:30;;;;;;;29.37;26.50;;;0.90;99.90;;;;;;5063182;28;20727;-70
2022/01/24 02:37:00;;;;;;;27.00;24.57;;;0.90;99.90;;;;;;5058214;28;21045;-69
2022/01/24 02:50:39;;;;;;;26.77;24.57;;;0.70;99.90;;;;;;5059395;28;20465;-68
2022/01/24 02:53:07;;;;;;;27.90;25.40;;;0.60;99.90;;;;;;5051831;28;20498;-70
2022/01/24 02:55:37;;;;;;;28.10;25.60;;;0.70;99.90;;;;;;5062306;28;20461;-68
2022/01/24 02:58:04;;;;;;;27.77;25.23;;;0.60;99.90;;;;;;5060239;28;20501;-70
2022/01/24 03:00:31;;;;;;;29.60;26.53;;;0.60;99.90;;;;;;5061716;28;20490;-69
2022/01/24 03:02:58;;;;;;;28.53;25.90;;;0.50;99.90;;;;;;5052246;28;20459;-69
2022/01/24 03:05:25;;;;;;;28.57;25.83;;;0.50;99.90;;;;;;5051261;28;20851;-68
2022/01/24 03:07:53;;;;;;;29.83;26.73;;;0.50;99.90;;;;;;5056789;28;20453;-70
2022/01/24 03:10:30;;;;;;;28.70;25.93;;;0.60;99.90;;;;;;5057557;28;20803;-70
2022/01/24 03:13:10;;;;;;;28.07;25.60;;;0.50;99.90;;;;;;5063016;28;21159;-70
2022/01/24 03:15:40;;;;;;;29.60;26.80;;;0.50;99.90;;;;;;5064888;28;20529;-69
2022/01/24 03:18:10;;;;;;;27.97;25.57;;;0.50;99.90;;;;;;5059688;28;20822;-70
2022/01/24 03:20:37;;;;;;;27.77;25.30;;;0.50;99.90;;;;;;5058600;28;20581;-70
2022/01/24 03:23:04;;;;;;;29.57;26.50;;;0.50;99.90;;;;;;5059775;28;20483;-70
2022/01/24 03:25:33;;;;;;;28.43;25.57;;;0.50;99.90;;;;;;5061601;28;20470;-71
2022/01/24 03:28:03;;;;;;;26.33;24.10;;;0.50;99.90;;;;;;5055719;28;20486;-68
2022/01/24 03:30:29;;;;;;;28.00;25.50;;;0.60;99.90;;;;;;5063858;28;20935;-69
2022/01/24 03:32:58;;;;;;;28.23;25.80;;;0.60;99.90;;;;;;5058480;28;20468;-68
2022/01/24 03:35:25;;;;;;;30.57;26.90;;;0.50;99.90;;;;;;5055888;28;20570;-72
2022/01/24 03:37:52;;;;;;;28.17;25.70;;;0.50;99.90;;;;;;5058386;28;21066;-70
2022/01/24 03:40:20;;;;;;;29.27;26.77;;;0.30;99.90;;;;;;5058382;28;20483;-72
2022/01/24 03:42:49;;;;;;;30.10;27.23;;;0.30;99.90;;;;;;5058719;28;20464;-69
2022/01/24 03:45:23;;;;;;;29.80;26.70;;;0.20;99.90;;;;;;5054129;28;20482;-71
2022/01/24 03:48:03;;;;;;;28.37;25.50;;;0.20;99.90;;;;;;5055188;28;20515;-71
2022/01/24 03:50:30;;;;;;;28.40;25.60;;;0.20;99.90;;;;;;5057899;28;20466;-69
2022/01/24 03:52:57;;;;;;;29.20;26.47;;;0.20;99.90;;;;;;5059393;28;20466;-70
2022/01/24 03:55:24;;;;;;;28.70;26.10;;;0.20;99.90;;;;;;5058917;28;20467;-70
2022/01/24 03:57:52;;;;;;;27.60;25.30;;;0.20;99.90;;;;;;5060942;28;20458;-70
2022/01/24 04:00:19;;;;;;;29.97;26.77;;;0.30;99.90;;;;;;5059065;28;20465;-70
2022/01/24 04:02:46;;;;;;;28.23;25.40;;;0.30;99.90;;;;;;5062143;28;20489;-71
2022/01/24 04:05:13;;;;;;;29.60;26.80;;;0.20;99.90;;;;;;5059376;28;20483;-70
2022/01/24 04:07:41;;;;;;;29.57;26.80;;;0.20;99.90;;;;;;5060740;28;20528;-70
2022/01/24 04:10:11;;;;;;;29.53;26.63;;;0.10;99.90;;;;;;5059499;28;20476;-69
2022/01/24 04:12:40;;;;;;;31.53;26.03;;;0.10;99.90;;;;;;5056124;28;20466;-71
2022/01/24 04:15:22;;;;;;;28.27;25.77;;;0.20;99.90;;;;;;5055821;28;21017;-69
2022/01/24 04:17:58;;;;;;;29.80;26.60;;;0.20;99.90;;;;;;5060665;28;20572;-70
2022/01/24 04:23:18;;;;;;;27.90;25.40;;;0.20;99.90;;;;;;5058076;28;20492;-69
2022/01/24 04:25:45;;;;;;;28.33;25.63;;;0.20;99.90;;;;;;5062731;28;20549;-69
2022/01/24 04:28:12;;;;;;;28.03;25.20;;;0.20;99.90;;;;;;5060807;28;20451;-70
2022/01/24 04:30:40;;;;;;;30.20;27.40;;;0.30;99.90;;;;;;5057940;28;20495;-71
2022/01/24 04:33:07;;;;;;;30.50;27.60;;;0.20;99.90;;;;;;5059456;28;20455;-71
2022/01/24 04:35:34;;;;;;;31.93;28.80;;;0.30;99.90;;;;;;5061462;28;20472;-69
2022/01/24 04:38:01;;;;;;;30.87;27.77;;;0.30;99.90;;;;;;5057680;28;20473;-70
2022/01/24 04:40:29;;;;;;;34.20;29.00;;;0.20;99.90;;;;;;5061052;28;20469;-71
2022/01/24 04:43:05;;;;;;;31.30;28.40;;;0.30;99.90;;;;;;5062293;28;20461;-69
2022/01/24 04:45:54;;;;;;;33.00;29.63;;;0.30;99.90;;;;;;5061099;28;20913;-70
2022/01/24 04:51:15;;;;;;;31.90;28.70;;;0.30;99.90;;;;;;5060318;28;20975;-71
2022/01/24 04:54:14;;;;;;;33.07;29.63;;;0.30;99.90;;;;;;5064465;28;20613;-70
2022/01/24 04:56:41;;;;;;;33.40;30.10;;;0.30;99.90;;;;;;5054386;28;20455;-71
2022/01/24 04:59:09;;;;;;;33.17;30.20;;;0.30;99.90;;;;;;5054116;28;20553;-70
2022/01/24 05:01:36;;;;;;;33.20;30.13;;;0.30;99.90;;;;;;5030360;28;20486;-70
2022/01/24 05:04:05;;;;;;;33.40;30.20;;;0.30;99.90;;;;;;5028663;28;20490;-71
2022/01/24 05:06:32;;;;;;;33.17;30.07;;;0.30;99.90;;;;;;5029821;28;20528;-71
2022/01/24 05:08:59;;;;;;;38.10;32.17;;;0.30;99.90;;;;;;5029645;28;20462;-72
2022/01/24 05:11:35;;;;;;;32.77;29.77;;;0.30;99.90;;;;;;5030178;28;20463;-70
2022/01/24 05:25:03;;;;;;;36.67;31.97;;;0.30;99.90;;;;;;5029918;28;21332;-71
2022/01/24 05:27:31;;;;;;;36.50;32.80;;;0.30;99.90;;;;;;5029679;28;20769;-70
2022/01/24 05:29:58;;;;;;;35.27;31.80;;;0.30;99.90;;;;;;5029253;28;20478;-71
2022/01/24 05:32:24;;;;;;;34.03;30.60;;;0.30;99.90;;;;;;5031621;28;20481;-71
2022/01/24 05:34:53;;;;;;;35.80;31.07;;;0.30;99.90;;;;;;5061355;28;20474;-72
2022/01/24 05:37:19;;;;;;;33.23;29.90;;;0.30;99.90;;;;;;5055058;28;20468;-71
2022/01/24 05:39:46;;;;;;;34.33;30.67;;;0.30;99.90;;;;;;5058864;28;20467;-72
2022/01/24 05:42:13;;;;;;;34.80;31.30;;;0.30;99.90;;;;;;5028023;28;20780;-70
2022/01/24 05:44:40;;;;;;;34.50;31.50;;;0.30;99.90;;;;;;5027158;28;20469;-70
2022/01/24 05:47:07;;;;;;;34.60;30.90;;;0.20;99.90;;;;;;5028879;28;20471;-71
2022/01/24 05:49:34;;;;;;;34.77;30.70;;;0.10;99.90;;;;;;5028924;28;20476;-71
2022/01/24 05:52:04;;;;;;;33.50;30.30;;;0.10;99.90;;;;;;5027480;28;20459;-72
2022/01/24 05:54:31;;;;;;;34.50;30.93;;;0.00;99.90;;;;;;5028495;28;20492;-72
2022/01/24 05:56:58;;;;;;;34.73;31.33;;;-0.10;99.90;;;;;;5029354;28;20462;-71
2022/01/24 05:59:25;;;;;;;33.77;30.37;;;-0.10;99.90;;;;;;5028292;28;20502;-72
2022/01/24 06:01:51;;;;;;;34.83;31.47;;;-0.20;99.90;;;;;;5029178;28;20956;-71
2022/01/24 06:04:18;;;;;;;33.43;30.30;;;-0.30;99.90;;;;;;5028878;28;21382;-71
2022/01/24 06:06:45;;;;;;;34.77;31.43;;;-0.30;99.90;;;;;;5028089;28;20509;-71
2022/01/24 06:09:13;;;;;;;33.80;30.40;;;-0.30;99.90;;;;;;5027211;28;20825;-72
2022/01/24 06:11:40;;;;;;;34.60;31.33;;;-0.30;99.90;;;;;;5032781;28;20684;-72
2022/01/24 06:14:07;;;;;;;35.90;32.27;;;-0.40;99.90;;;;;;5028007;28;20499;-72
2022/01/24 06:16:34;;;;;;;34.00;30.87;;;-0.30;99.90;;;;;;5028973;28;20929;-71
2022/01/24 06:19:01;;;;;;;34.30;31.07;;;-0.30;99.90;;;;;;5029599;28;20471;-71
2022/01/24 06:21:28;;;;;;;34.47;31.17;;;-0.30;99.90;;;;;;5028107;28;21447;-72
2022/01/24 06:23:56;;;;;;;35.00;31.80;;;-0.30;99.90;;;;;;5029317;28;20821;-72
2022/01/24 06:26:24;;;;;;;35.07;31.57;;;-0.30;99.90;;;;;;5029326;28;20842;-72
2022/01/24 06:28:51;;;;;;;36.13;32.60;;;-0.30;99.90;;;;;;5028966;28;20465;-71
2022/01/24 06:31:17;;;;;;;33.83;30.47;;;-0.20;99.90;;;;;;5029435;28;21049;-72
2022/01/24 06:33:44;;;;;;;35.67;32.03;;;-0.10;99.90;;;;;;5026558;28;20475;-71
2022/01/24 06:36:11;;;;;;;37.17;33.20;;;-0.10;99.90;;;;;;5027162;28;20467;-71
2022/01/24 06:38:38;;;;;;;37.33;33.73;;;-0.10;99.90;;;;;;5057617;28;20467;-73
2022/01/24 06:41:05;;;;;;;42.17;33.97;;;-0.10;99.90;;;;;;5060203;28;20472;-71
2022/01/24 06:43:33;;;;;;;35.53;31.40;;;-0.10;99.90;;;;;;5049651;28;20718;-72
2022/01/24 06:46:01;;;;;;;43.90;39.20;;;-0.10;99.90;;;;;;5029464;28;20470;-74
2022/01/24 06:48:28;;;;;;;39.83;35.67;;;-0.10;99.90;;;;;;5028731;28;20545;-72
2022/01/24 06:50:55;;;;;;;38.27;34.23;;;0.00;99.90;;;;;;5029583;28;20460;-72
2022/01/24 06:53:22;;;;;;;36.43;32.10;;;0.00;99.90;;;;;;5027603;28;20477;-74
2022/01/24 06:55:49;;;;;;;37.13;33.13;;;0.00;99.90;;;;;;5027866;28;20486;-73
2022/01/24 06:58:16;;;;;;;38.07;34.13;;;0.00;99.90;;;;;;5027955;28;20470;-71
2022/01/24 07:00:44;;;;;;;37.47;33.67;;;-0.10;99.90;;;;;;5027855;28;20469;-73
2022/01/24 07:03:11;;;;;;;38.43;34.60;;;0.00;99.90;;;;;;5027134;28;20492;-72
2022/01/24 07:05:38;;;;;;;37.07;33.17;;;0.00;99.90;;;;;;5027004;28;20499;-70
2022/01/24 07:08:05;;;;;;;34.87;31.57;;;-0.10;99.90;;;;;;5026927;28;20459;-71
2022/01/24 07:10:33;;;;;;;40.30;33.40;;;-0.20;99.90;;;;;;5027981;28;20549;-70
2022/01/24 07:12:59;;;;;;;37.70;33.70;;;-0.30;99.90;;;;;;5027871;28;21001;-71
2022/01/24 07:15:32;;;;;;;35.93;32.10;;;-0.40;99.90;;;;;;5027799;28;20458;-71
2022/01/24 07:18:16;;;;;;;49.03;33.10;;;-0.50;99.90;;;;;;5027644;28;20493;-72
2022/01/24 07:20:43;;;;;;;38.23;33.80;;;-0.60;99.90;;;;;;5027667;28;20474;-73
2022/01/24 07:23:10;;;;;;;45.40;32.43;;;-0.50;99.90;;;;;;5026201;28;20867;-72
2022/01/24 07:25:38;;;;;;;36.07;32.40;;;-0.50;99.90;;;;;;5025141;28;20471;-73
2022/01/24 07:28:05;;;;;;;36.63;32.83;;;-0.40;99.90;;;;;;5025355;28;20600;-72
2022/01/24 07:30:32;;;;;;;37.10;33.63;;;-0.40;99.90;;;;;;5026975;28;20489;-73
2022/01/24 07:33:00;;;;;;;37.07;33.53;;;-0.30;99.90;;;;;;5025864;28;20985;-73
2022/01/24 07:35:27;;;;;;;39.73;33.23;;;-0.30;99.90;;;;;;5026883;28;20472;-72
2022/01/24 07:37:54;;;;;;;34.80;31.33;;;-0.30;99.90;;;;;;5026934;28;20496;-72
2022/01/24 07:40:22;;;;;;;33.80;29.67;;;-0.40;99.90;;;;;;5027175;28;21503;-72
2022/01/24 07:42:58;;;;;;;33.87;30.33;;;-0.40;99.90;;;;;;5026387;28;20643;-72
2022/01/24 07:45:26;;;;;;;32.67;29.27;;;-0.20;99.90;;;;;;5027491;28;20454;-73
2022/01/24 07:47:54;;;;;;;33.93;30.27;;;-0.10;99.90;;;;;;5037266;28;20956;-72
2022/01/24 07:50:25;;;;;;;33.20;28.47;;;-0.10;99.90;;;;;;5028496;28;20473;-73
2022/01/24 07:52:52;;;;;;;31.93;28.60;;;-0.10;99.90;;;;;;5030692;28;20558;-73
2022/01/24 07:55:19;;;;;;;31.67;28.47;;;-0.10;99.90;;;;;;5030450;28;20827;-72
2022/01/24 07:57:46;;;;;;;31.73;28.63;;;0.00;99.90;;;;;;5031140;28;20463;-73
2022/01/24 08:00:13;;;;;;;34.50;27.60;;;0.10;99.90;;;;;;5030626;28;20460;-72
2022/01/24 08:02:41;;;;;;;31.03;28.10;;;0.10;99.90;;;;;;5031333;28;20606;-73
2022/01/24 08:05:09;;;;;;;31.20;27.90;;;0.10;99.90;;;;;;5029321;28;20863;-73
2022/01/24 08:07:39;;;;;;;31.87;28.80;;;0.10;99.90;;;;;;5024295;28;20902;-73
2022/01/24 08:10:08;;;;;;;39.07;29.13;;;0.10;99.90;;;;;;5024530;28;20467;-73
2022/01/24 08:12:35;;;;;;;32.00;28.53;;;0.10;99.90;;;;;;5024751;28;20463;-73
2022/01/24 08:15:03;;;;;;;32.17;29.27;;;0.10;99.90;;;;;;5024615;28;20490;-72
2022/01/24 08:17:30;;;;;;;30.40;27.40;;;0.10;99.90;;;;;;5026063;28;22576;-72
2022/01/24 08:19:57;;;;;;;33.50;29.97;;;0.20;99.90;;;;;;5025861;28;20467;-72
2022/01/24 08:22:24;;;;;;;32.20;28.80;;;0.20;99.90;;;;;;5024935;28;20841;-73
2022/01/24 08:24:53;;;;;;;30.83;27.90;;;0.30;99.90;;;;;;5025851;28;20466;-73
2022/01/24 08:27:20;;;;;;;32.70;29.40;;;0.30;99.90;;;;;;5026316;28;20854;-73
2022/01/24 08:29:49;;;;;;;34.63;30.90;;;0.30;99.90;;;;;;5025715;28;20467;-72
2022/01/24 08:32:15;;;;;;;33.60;30.10;;;0.40;99.90;;;;;;5025288;28;20491;-73
2022/01/24 08:34:42;;;;;;;32.47;29.60;;;0.40;99.90;;;;;;5024408;28;20462;-73
2022/01/24 08:37:09;;;;;;;32.10;28.40;;;0.50;99.90;;;;;;5025439;28;22235;-73
2022/01/24 08:39:36;;;;;;;32.73;29.43;;;0.60;99.90;;;;;;5026343;28;20470;-72
2022/01/24 08:42:14;;;;;;;33.93;30.53;;;0.60;99.90;;;;;;5025725;28;20499;-73
2022/01/24 08:47:27;;;;;;;33.67;30.33;;;0.80;99.90;;;;;;5020776;28;21020;-73
2022/01/24 08:49:55;;;;;;;36.17;32.67;;;0.80;99.90;;;;;;5023726;28;22287;-73
2022/01/24 08:52:21;;;;;;;35.90;32.60;;;0.90;99.90;;;;;;5025572;28;21034;-72
2022/01/24 08:54:48;;;;;;;36.70;32.90;;;0.90;99.90;;;;;;5024555;28;20459;-72
2022/01/24 08:57:21;;;;;;;37.60;34.20;;;1.00;99.90;;;;;;5025161;28;20470;-73
2022/01/24 08:59:48;;;;;;;36.93;33.07;;;1.00;99.90;;;;;;5025695;28;20757;-72
2022/01/24 09:02:15;;;;;;;35.80;32.37;;;1.10;99.90;;;;;;5025311;28;20667;-72
2022/01/24 09:04:42;;;;;;;39.87;34.10;;;1.10;99.90;;;;;;5024681;28;20471;-72
2022/01/24 09:07:10;;;;;;;37.53;32.70;;;1.10;99.90;;;;;;5024531;28;21236;-73
2022/01/24 09:09:37;;;;;;;36.87;33.50;;;1.20;99.90;;;;;;5025057;28;20485;-72
2022/01/24 09:12:11;;;;;;;38.33;34.47;;;1.30;99.90;;;;;;5025803;28;21055;-72
2022/01/24 09:14:40;;;;;;;41.73;33.60;;;1.40;99.90;;;;;;5025201;28;20497;-71
2022/01/24 09:17:07;;;;;;;37.73;34.07;;;1.50;99.90;;;;;;5024894;28;20464;-73
2022/01/24 09:19:34;;;;;;;37.50;33.47;;;1.50;99.90;;;;;;5024948;28;20490;-71
2022/01/24 09:22:01;;;;;;;38.40;34.50;;;1.50;99.90;;;;;;5024778;28;20997;-73
2022/01/24 09:24:28;;;;;;;41.73;33.40;;;1.60;99.90;;;;;;5024664;28;20468;-73
2022/01/24 09:26:54;;;;;;;38.87;35.00;;;1.70;99.90;;;;;;5024087;28;20789;-73
2022/01/24 09:29:21;;;;;;;38.73;34.53;;;1.80;99.90;;;;;;5024996;28;21137;-72
2022/01/24 09:31:50;;;;;;;38.17;34.07;;;1.80;99.90;;;;;;5024816;28;20494;-73
2022/01/24 09:34:17;;;;;;;40.13;35.57;;;1.90;99.90;;;;;;5023650;28;20466;-73
2022/01/24 09:36:44;;;;;;;37.77;33.87;;;2.00;99.90;;;;;;5023701;28;20475;-70
2022/01/24 09:39:12;;;;;;;38.53;34.53;;;2.10;99.90;;;;;;5025111;28;21085;-72
2022/01/24 09:41:40;;;;;;;39.20;34.30;;;2.10;99.90;;;;;;5024007;28;20962;-72
2022/01/24 09:44:07;;;;;;;38.67;34.23;;;2.20;99.90;;;;;;5024066;28;20495;-72
2022/01/24 09:46:36;;;;;;;40.70;35.40;;;2.30;99.90;;;;;;5024670;28;20467;-69
2022/01/24 09:49:05;;;;;;;37.87;33.67;;;2.30;99.90;;;;;;5024729;28;20491;-70
2022/01/24 09:51:33;;;;;;;38.37;34.37;;;2.40;99.90;;;;;;5024818;28;20906;-70
2022/01/24 09:54:00;;;;;;;47.13;34.30;;;2.50;99.90;;;;;;5023780;28;20825;-69
2022/01/24 09:56:28;;;;;;;37.23;33.23;;;2.50;99.90;;;;;;5024706;28;20586;-72
2022/01/24 09:58:55;;;;;;;41.30;36.30;;;2.60;99.90;;;;;;5023991;28;20808;-73
2022/01/24 10:01:21;;;;;;;40.20;35.90;;;2.70;99.90;;;;;;5024721;28;20472;-69
2022/01/24 10:04:10;;;;;;;37.53;33.40;;;2.80;99.90;;;;;;5022803;28;20844;-70
2022/01/24 10:06:57;;;;;;;38.27;34.13;;;2.90;99.90;;;;;;5023893;28;20486;-70
2022/01/24 10:09:33;;;;;;;43.60;35.50;;;2.90;99.90;;;;;;5023514;28;20463;-69
2022/01/24 10:12:14;;;;;;;45.37;33.50;;;3.00;99.90;;;;;;5023712;28;20851;-69
2022/01/24 10:17:27;;;;;;;38.40;34.50;;;3.10;99.90;;;;;;5024533;28;20471;-68
2022/01/24 10:19:56;;;;;;;39.37;34.93;;;3.20;99.90;;;;;;5022802;28;20459;-69
2022/01/24 10:22:25;;;;;;;39.00;35.00;;;3.30;99.90;;;;;;5024655;28;20581;-68
2022/01/24 10:24:55;;;;;;;48.30;35.00;;;3.30;99.90;;;;;;5019981;28;20752;-68
2022/01/24 10:27:24;;;;;;;40.93;34.37;;;3.30;99.90;;;;;;5021992;28;20463;-69
2022/01/24 10:29:56;;;;;;;41.27;35.93;;;3.40;99.90;;;;;;5023157;28;20462;-68
2022/01/24 10:32:35;;;;;;;38.37;34.47;;;3.40;99.90;;;;;;5023394;28;20462;-68
2022/01/24 10:35:30;;;;;;;39.60;35.40;;;3.50;99.90;;;;;;5022548;28;20886;-68
2022/01/24 10:38:25;;;;;;;39.53;35.00;;;3.50;99.90;;;;;;5020766;28;20931;-68
2022/01/24 10:40:56;;;;;;;40.00;34.23;;;3.60;99.90;;;;;;5023055;28;20459;-68
2022/01/24 10:43:25;;;;;;;45.17;34.10;;;3.60;99.90;;;;;;5023721;28;20533;-68
2022/01/24 10:45:54;;;;;;;38.63;34.83;;;3.60;99.90;;;;;;5021030;28;20467;-69
2022/01/24 10:48:24;;;;;;;38.97;34.83;;;3.70;99.90;;;;;;5022424;28;20807;-69
2022/01/24 10:51:05;;;;;;;36.53;32.83;;;3.80;99.90;;;;;;5022613;28;20984;-69
2022/01/24 10:53:37;;;;;;;37.80;33.57;;;3.90;99.90;;;;;;5024019;28;20844;-69
2022/01/24 10:56:29;;;;;;;38.00;33.97;;;3.90;99.90;;;;;;5023813;28;21524;-69
2022/01/24 10:59:01;;;;;;;35.63;32.13;;;4.00;99.90;;;;;;5023938;28;20471;-69
2022/01/24 11:01:29;;;;;;;36.70;33.20;;;4.10;99.90;;;;;;5023175;28;20463;-70
2022/01/24 11:04:01;;;;;;;38.40;32.50;;;4.10;99.90;;;;;;5020035;28;21719;-69
2022/01/24 11:06:31;;;;;;;35.87;32.13;;;4.20;99.90;;;;;;5020932;28;21035;-69
2022/01/24 11:09:21;;;;;;;33.57;30.20;;;4.40;99.90;;;;;;5022026;28;20474;-68
2022/01/24 11:11:49;;;;;;;36.00;32.83;;;5.10;99.90;;;;;;5023106;28;20476;-68
2022/01/24 11:14:19;;;;;;;35.40;32.07;;;5.80;99.90;;;;;;5022750;28;20486;-70
2022/01/24 11:16:46;;;;;;;35.40;32.07;;;6.70;99.90;;;;;;5023440;28;20475;-69
2022/01/24 11:19:20;;;;;;;33.00;30.10;;;7.60;99.90;;;;;;5021994;28;20831;-70
2022/01/24 11:21:51;;;;;;;31.43;28.77;;;8.20;99.90;;;;;;5023050;28;20813;-69
2022/01/24 11:24:22;;;;;;;30.37;27.57;;;8.00;99.90;;;;;;5022549;28;20489;-69
2022/01/24 11:26:49;;;;;;;28.67;26.10;;;7.90;99.90;;;;;;5023809;28;20479;-70
2022/01/24 11:29:19;;;;;;;27.13;25.13;;;8.10;99.90;;;;;;5034486;28;20471;-70
2022/01/24 11:31:52;;;;;;;28.50;26.10;;;8.50;99.90;;;;;;5040843;28;20470;-69
2022/01/24 11:34:30;;;;;;;26.53;24.30;;;8.70;99.90;;;;;;5020533;28;20459;-69
2022/01/24 11:36:59;;;;;;;25.47;23.37;;;9.40;99.90;;;;;;5022843;28;20465;-69
2022/01/24 11:39:26;;;;;;;25.97;24.07;;;9.40;99.90;;;;;;5023192;28;20474;-71
2022/01/24 11:41:54;;;;;;;26.93;24.93;;;9.10;99.90;;;;;;5021902;28;20466;-71
2022/01/24 11:44:22;;;;;;;25.90;24.07;;;9.20;99.90;;;;;;5021196;28;20594;-69
2022/01/24 11:46:52;;;;;;;25.80;23.83;;;9.20;99.90;;;;;;5020345;28;20456;-70
2022/01/24 11:49:26;;;;;;;24.60;22.90;;;9.70;99.90;;;;;;5022920;28;20959;-69
2022/01/24 11:52:04;;;;;;;25.83;23.73;;;9.90;99.90;;;;;;5022547;28;20468;-70
2022/01/24 11:54:43;;;;;;;25.77;23.63;;;9.90;99.90;;;;;;5021777;28;20459;-69
2022/01/24 11:57:25;;;;;;;24.03;22.13;;;10.10;99.90;;;;;;5023446;28;20811;-69
2022/01/24 12:00:13;;;;;;;24.40;21.97;;;9.90;99.90;;;;;;5023196;28;20475;-70
2022/01/24 12:02:42;;;;;;;23.83;22.20;;;9.80;99.90;;;;;;5021603;28;20493;-70
2022/01/24 12:05:12;;;;;;;23.70;21.87;;;10.30;99.90;;;;;;5020302;28;20488;-69
2022/01/24 12:07:44;;;;;;;24.17;22.47;;;10.30;99.90;;;;;;5021090;28;20470;-70
2022/01/24 12:10:38;;;;;;;23.67;22.00;;;9.80;99.90;;;;;;5021099;28;20471;-69
2022/01/24 12:13:09;;;;;;;24.43;22.63;;;9.70;99.90;;;;;;5019496;28;21280;-69
2022/01/24 12:15:54;;;;;;;22.57;20.87;;;9.80;99.90;;;;;;5021724;28;20718;-69
2022/01/24 12:18:24;;;;;;;23.50;21.87;;;10.10;99.90;;;;;;5020557;28;20453;-71
2022/01/24 12:20:52;;;;;;;22.53;20.93;;;10.70;99.90;;;;;;5020228;28;20897;-69
2022/01/24 12:23:40;;;;;;;24.40;22.37;;;10.40;99.90;;;;;;5019886;28;20487;-70
2022/01/24 12:26:08;;;;;;;22.90;21.10;;;9.60;99.90;;;;;;5020576;28;20533;-70
2022/01/24 12:28:48;;;;;;;23.30;21.70;;;9.60;99.90;;;;;;5016835;28;20451;-69
2022/01/24 12:31:21;;;;;;;22.17;20.67;;;9.70;99.90;;;;;;5020135;28;20490;-69
2022/01/24 12:34:00;;;;;;;24.63;22.33;;;9.90;99.90;;;;;;5020411;28;20637;-70
2022/01/24 12:37:02;;;;;;;22.77;21.07;;;10.00;99.90;;;;;;5021766;28;20474;-69
2022/01/24 12:39:38;;;;;;;23.80;22.10;;;9.90;99.90;;;;;;5013374;28;20960;-71
2022/01/24 12:42:12;;;;;;;24.73;22.00;;;10.10;99.90;;;;;;5022509;28;20462;-70
2022/01/24 12:47:37;;;;;;;22.30;20.80;;;10.90;99.90;;;;;;4962521;28;20471;-70
2022/01/24 12:50:06;;;;;;;22.40;20.70;;;11.10;99.90;;;;;;5009696;28;20464;-70
2022/01/24 12:52:33;;;;;;;22.33;20.83;;;10.90;99.90;;;;;;5026178;28;20472;-69
2022/01/24 12:55:02;;;;;;;23.10;21.10;;;10.80;99.90;;;;;;5057087;28;20467;-69
2022/01/24 12:57:37;;;;;;;22.33;20.70;;;10.90;99.90;;;;;;5052786;28;20460;-69
2022/01/24 13:00:08;;;;;;;22.20;20.70;;;11.10;99.90;;;;;;5028687;28;21070;-71
2022/01/24 13:02:37;;;;;;;21.80;20.40;;;11.40;99.90;;;;;;5024840;28;20463;-70
2022/01/24 13:05:07;;;;;;;21.03;19.67;;;11.00;99.90;;;;;;5022226;28;20960;-69
2022/01/24 13:07:35;;;;;;;22.43;20.40;;;11.00;99.90;;;;;;5023802;28;20470;-69
2022/01/24 13:10:15;;;;;;;21.07;19.70;;;10.70;99.90;;;;;;5025066;28;20978;-69
2022/01/24 13:12:43;;;;;;;20.90;19.30;;;11.00;99.90;;;;;;5025579;28;20498;-70
2022/01/24 13:15:24;;;;;;;20.90;19.23;;;11.10;99.90;;;;;;5025501;28;20906;-70
2022/01/24 13:23:27;;;;;;;22.70;21.10;;;10.80;99.90;;;;;;5021723;28;20484;-69
2022/01/24 13:25:55;;;;;;;21.37;19.87;;;11.00;99.90;;;;;;5024735;28;20456;-70
2022/01/24 13:28:23;;;;;;;21.33;19.77;;;11.00;99.90;;;;;;5024367;28;20463;-69
2022/01/24 13:30:57;;;;;;;22.10;20.50;;;11.00;99.90;;;;;;5024882;28;20940;-70
2022/01/24 13:33:25;;;;;;;21.80;19.87;;;10.80;99.90;;;;;;5023272;28;20459;-72
2022/01/24 13:35:54;;;;;;;21.30;19.90;;;10.90;99.90;;;;;;5022876;28;20518;-70
2022/01/24 13:38:25;;;;;;;22.43;20.53;;;10.50;99.90;;;;;;5022920;28;20460;-70
2022/01/24 13:40:57;;;;;;;22.60;21.00;;;10.50;99.90;;;;;;5024531;28;20479;-70
2022/01/24 13:43:39;;;;;;;22.60;20.67;;;10.60;99.90;;;;;;5023480;28;20487;-72
2022/01/24 13:46:08;;;;;;;23.50;21.97;;;10.60;99.90;;;;;;5024782;28;20762;-69
2022/01/24 13:48:41;;;;;;;22.30;20.70;;;10.60;99.90;;;;;;5024469;28;20828;-70
2022/01/24 13:51:08;;;;;;;23.57;21.77;;;10.70;99.90;;;;;;5025012;28;20464;-70
2022/01/24 13:53:39;;;;;;;22.73;21.00;;;10.90;99.90;;;;;;5024650;28;20463;-71
2022/01/24 13:56:21;;;;;;;23.50;21.70;;;10.90;99.90;;;;;;5023774;28;20468;-70
2022/01/24 13:59:09;;;;;;;24.17;22.00;;;10.90;99.90;;;;;;5024108;28;20463;-71
2022/01/24 14:01:39;;;;;;;24.27;22.30;;;11.10;99.90;;;;;;5024606;28;20459;-69
2022/01/24 14:04:08;;;;;;;23.67;21.97;;;11.20;99.90;;;;;;5023573;28;20847;-71
2022/01/24 14:06:38;;;;;;;23.20;21.70;;;11.30;99.90;;;;;;5024023;28;20463;-70
2022/01/24 14:09:10;;;;;;;24.30;22.40;;;11.60;99.90;;;;;;5024576;28;21013;-72
2022/01/24 14:11:42;;;;;;;24.07;22.23;;;11.40;99.90;;;;;;5025120;28;20480;-71
2022/01/24 14:14:14;;;;;;;25.93;23.53;;;11.10;99.90;;;;;;5023635;28;21075;-69
2022/01/24 14:16:49;;;;;;;25.60;23.67;;;10.80;99.90;;;;;;5024461;28;21252;-70